Terminal Aerodrome Forecast
Issued by NWS

Home | Current Version | Previous Version | Text Only | Print | Product List | Glossary On
Versions: 1 2 3 4 5 6 7 8 9 10 11 12 13 14
179
FTUS45 KRIW 250539
TAFJAC
TAF
KJAC 250539Z 2506/2606 21007KT P6SM SCT030 BKN050
     FM251900 19012G18KT 3SM -SN OVC025
     FM260300 20009KT P6SM VCSH SCT025 BKN040
      AMD LTD TO CLD VIS AND WIND=

USA.gov is the U.S. government's official web portal to all federal, state and local government web resources and services.